Portada
METAR-TAF:

METAR-TAF

Aeroports :

Campo Grande, Mato Grosso do Sul, Brasil

latitud: 20-28S, longitud: 054-40W, altitud: 567 m

Observació

L'informe es va fer fa 34 minuts, a les 20:00 UTC
Vent 4 kt del Est/Nord-Est
Temperatura 29°C
Humitat 23%
Pressió 1019 hPa
Visibilitat 10 km o més
sense núvols per sota de 1500 mi sense presència de cumulonimbus.

METAR: SBCG 082000Z 06004KT CAVOK 29/06 Q1019

Hora: 16:34 (20:34 UTC)

Pronòstic

L'informe es va fer fa 5 hores i 34 minuts, a les 15:00 UTC
Pronòstic vàlid del 08 a les 18 UTC al 09 a les 18 UTC
Vent 8 kt del Est
Visibilitat 10 km o més
sense núvols per sota de 1500 mi sense presència de cumulonimbus.

TAF: SBCG 081500Z 0818/0918 08008KT CAVOK TN18/0905Z TX29/0917Z RMK PEG

Observacions i pronòstics meteorològics de més de 4000 aeroports (METAR i TAF).

Les estacions disponibles són els punts grocs i vermells al mapa.

Posi el ratolí al punt desitjat per veure el nom de l'estació.

Feu clic per veure les observacions i els pronòstics meteorològics.

Per canviar el mapa: feu clic els botons verds amb una creu de color negre per apropar; al botó verd amb un guió per allunyar la imatge; o en les fletxes verdes per a mapes adjacents.


METAR-TAF: